createdAt,value
2022-12-07T00:00:51.171Z,100.00
2022-12-07T00:03:39.150Z,100.00
2022-12-07T00:06:25.776Z,100.00
2022-12-07T00:09:15.308Z,100.00
2022-12-07T00:12:02.118Z,100.00
2022-12-07T00:14:48.311Z,100.00
2022-12-07T00:17:34.750Z,100.00
2022-12-07T00:20:21.369Z,100.00
2022-12-07T00:23:07.554Z,100.00
2022-12-07T00:25:54.184Z,100.00
2022-12-07T00:28:40.922Z,100.00
2022-12-07T00:31:29.535Z,100.00
2022-12-07T00:34:21.001Z,100.00
2022-12-07T00:37:07.642Z,100.00
2022-12-07T00:39:53.937Z,100.00
2022-12-07T00:42:40.549Z,100.00
2022-12-07T00:45:27.245Z,100.00
2022-12-07T00:48:13.717Z,100.00
2022-12-07T00:51:00.186Z,100.00
2022-12-07T00:53:47.254Z,100.00
2022-12-07T00:56:34.722Z,100.00
2022-12-07T00:59:21.362Z,100.00
2022-12-07T01:02:07.711Z,100.00
2022-12-07T01:04:54.045Z,100.00
2022-12-07T01:07:40.391Z,100.00
2022-12-07T01:10:27.744Z,100.00
2022-12-07T01:13:15.166Z,100.00
2022-12-07T01:16:04.899Z,100.00
2022-12-07T01:18:53.253Z,100.00
2022-12-07T01:21:39.577Z,100.00
2022-12-07T01:24:25.873Z,100.00
2022-12-07T01:27:12.210Z,100.00
2022-12-07T01:29:58.562Z,100.00
2022-12-07T01:32:45.247Z,100.00
2022-12-07T01:35:34.931Z,100.00
2022-12-07T01:38:21.096Z,100.00
2022-12-07T01:41:08.036Z,100.00
2022-12-07T01:44:17.423Z,100.00
2022-12-07T01:47:05.007Z,100.00
2022-12-07T01:49:51.615Z,100.00
2022-12-07T01:52:39.588Z,100.00
2022-12-07T01:55:26.367Z,100.00
2022-12-07T01:58:14.183Z,100.00
2022-12-07T02:01:00.521Z,100.00
2022-12-07T02:03:47.059Z,100.00
2022-12-07T02:06:36.351Z,100.00
2022-12-07T02:09:22.598Z,100.00
2022-12-07T02:12:08.862Z,100.00
2022-12-07T02:14:55.237Z,100.00
2022-12-07T02:18:07.571Z,100.00
2022-12-07T02:21:08.598Z,100.00
2022-12-07T02:24:26.075Z,100.00
2022-12-07T02:27:43.186Z,100.00
2022-12-07T02:30:34.361Z,100.00
2022-12-07T02:33:29.264Z,100.00
2022-12-07T02:36:27.116Z,100.00
2022-12-07T02:39:21.485Z,100.00
2022-12-07T02:42:16.035Z,100.00
2022-12-07T02:45:02.916Z,100.00
2022-12-07T02:47:54.144Z,100.00
2022-12-07T02:50:46.271Z,100.00
2022-12-07T02:53:41.812Z,100.00
2022-12-07T02:56:57.419Z,100.00
2022-12-07T03:00:00.106Z,100.00
2022-12-07T03:02:56.013Z,100.00
2022-12-07T03:06:21.173Z,100.00
2022-12-07T03:09:20.140Z,100.00
2022-12-07T03:12:18.628Z,100.00
2022-12-07T03:15:11.339Z,100.00
2022-12-07T03:18:00.369Z,100.00
2022-12-07T03:20:51.256Z,100.00
2022-12-07T03:23:40.142Z,100.00
2022-12-07T03:26:35.449Z,100.00
2022-12-07T03:29:27.617Z,100.00
2022-12-07T03:32:20.193Z,100.00
2022-12-07T03:35:16.949Z,100.00
2022-12-07T03:38:14.497Z,100.00
2022-12-07T03:41:15.688Z,100.00
2022-12-07T03:44:02.321Z,100.00
2022-12-07T03:47:16.763Z,100.00
2022-12-07T03:50:28.603Z,100.00
2022-12-07T03:53:30.500Z,100.00
2022-12-07T03:56:17.019Z,100.00
2022-12-07T03:59:03.760Z,100.00
2022-12-07T04:01:58.600Z,100.00
2022-12-07T04:04:45.142Z,100.00
2022-12-07T04:07:31.660Z,100.00
2022-12-07T04:10:18.755Z,100.00
2022-12-07T04:13:05.234Z,100.00
2022-12-07T04:15:51.475Z,100.00
2022-12-07T04:18:37.881Z,100.00
2022-12-07T04:21:24.124Z,100.00
2022-12-07T04:24:10.649Z,100.00
2022-12-07T04:26:56.916Z,100.00
2022-12-07T04:29:43.061Z,100.00
2022-12-07T04:32:29.219Z,100.00
2022-12-07T04:35:15.880Z,100.00
2022-12-07T04:38:02.122Z,100.00
2022-12-07T04:40:48.445Z,100.00
2022-12-07T04:43:35.499Z,100.00
2022-12-07T04:46:21.820Z,100.00
2022-12-07T04:49:08.353Z,100.00
2022-12-07T04:51:55.128Z,100.00
2022-12-07T04:54:41.427Z,100.00
2022-12-07T04:57:27.617Z,100.00
2022-12-07T05:00:13.972Z,100.00
2022-12-07T05:02:59.968Z,100.00
2022-12-07T05:05:46.520Z,100.00
2022-12-07T05:08:33.505Z,100.00
2022-12-07T05:11:38.318Z,100.00
2022-12-07T05:14:24.773Z,100.00
2022-12-07T05:17:12.494Z,100.00
2022-12-07T05:19:58.826Z,100.00
2022-12-07T05:22:45.608Z,100.00
2022-12-07T05:25:31.816Z,100.00
2022-12-07T05:28:18.076Z,100.00
2022-12-07T05:31:04.408Z,100.00
2022-12-07T05:33:50.906Z,100.00
2022-12-07T05:36:37.367Z,100.00
2022-12-07T05:39:24.007Z,100.00
2022-12-07T05:42:14.720Z,100.00
2022-12-07T05:45:01.504Z,100.00
2022-12-07T05:47:47.757Z,100.00
2022-12-07T05:50:34.032Z,100.00
2022-12-07T05:53:23.186Z,100.00
2022-12-07T05:56:09.899Z,100.00
2022-12-07T05:59:15.028Z,100.00
2022-12-07T06:02:04.517Z,100.00
2022-12-07T06:04:51.157Z,100.00
2022-12-07T06:07:37.609Z,100.00
2022-12-07T06:10:23.987Z,100.00
2022-12-07T06:13:10.659Z,100.00
2022-12-07T06:15:56.804Z,100.00
2022-12-07T06:18:43.346Z,100.00
2022-12-07T06:21:30.453Z,100.00
2022-12-07T06:24:17.807Z,100.00
2022-12-07T06:27:04.489Z,100.00
2022-12-07T06:29:51.101Z,100.00
2022-12-07T06:32:38.273Z,100.00
2022-12-07T06:35:24.840Z,100.00
2022-12-07T06:38:11.261Z,100.00
2022-12-07T06:40:57.375Z,100.00
2022-12-07T06:43:44.883Z,100.00
2022-12-07T06:46:32.133Z,100.00
2022-12-07T06:49:19.133Z,100.00
2022-12-07T06:52:06.681Z,100.00
2022-12-07T06:54:53.791Z,100.00
2022-12-07T06:57:40.153Z,100.00
2022-12-07T07:00:26.352Z,100.00
2022-12-07T07:03:13.036Z,100.00
2022-12-07T07:05:59.306Z,100.00
2022-12-07T07:08:45.810Z,100.00
2022-12-07T07:11:42.945Z,100.00
2022-12-07T07:14:37.652Z,100.00
2022-12-07T07:17:28.138Z,100.00
2022-12-07T07:20:14.913Z,100.00
2022-12-07T07:23:01.200Z,100.00
2022-12-07T07:25:48.212Z,100.00
2022-12-07T07:28:34.330Z,100.00
2022-12-07T07:31:21.011Z,100.00
2022-12-07T07:34:07.600Z,100.00
2022-12-07T07:36:54.057Z,100.00
2022-12-07T07:39:40.618Z,100.00
2022-12-07T07:42:26.954Z,100.00
2022-12-07T07:45:13.057Z,100.00
2022-12-07T07:47:59.533Z,100.00
2022-12-07T07:50:45.986Z,100.00
2022-12-07T07:53:32.588Z,100.00
2022-12-07T07:56:19.972Z,100.00
2022-12-07T07:59:06.369Z,100.00
2022-12-07T08:01:52.741Z,100.00
2022-12-07T08:04:39.313Z,100.00
2022-12-07T08:07:25.492Z,100.00
2022-12-07T08:10:13.568Z,100.00
2022-12-07T08:13:11.938Z,100.00
2022-12-07T08:15:59.182Z,100.00
2022-12-07T08:18:45.758Z,100.00
2022-12-07T08:21:32.195Z,100.00
2022-12-07T08:24:19.108Z,100.00
2022-12-07T08:27:05.395Z,100.00
2022-12-07T08:29:51.754Z,100.00
2022-12-07T08:32:38.276Z,98.75
2022-12-07T08:35:25.342Z,99.41
2022-12-07T08:38:11.822Z,98.42
2022-12-07T08:40:59.557Z,99.96
2022-12-07T08:43:45.795Z,99.47
2022-12-07T08:46:38.792Z,96.19
2022-12-07T08:49:32.707Z,95.94
2022-12-07T08:52:19.067Z,95.81
2022-12-07T08:55:06.095Z,94.44
2022-12-07T08:57:52.841Z,94.56
2022-12-07T09:00:40.137Z,93.68
2022-12-07T09:03:26.825Z,93.95
2022-12-07T09:06:13.342Z,93.28
2022-12-07T09:09:02.806Z,94.75
2022-12-07T09:11:49.449Z,95.41
2022-12-07T09:14:35.852Z,96.45
2022-12-07T09:17:22.362Z,97.76
2022-12-07T09:20:09.075Z,98.98
2022-12-07T09:22:55.334Z,98.27
2022-12-07T09:25:41.681Z,99.21
2022-12-07T09:28:28.287Z,100.00
2022-12-07T09:31:23.456Z,100.00
2022-12-07T09:34:10.631Z,100.00
2022-12-07T09:36:56.752Z,100.00
2022-12-07T09:39:49.471Z,100.00
2022-12-07T09:42:46.540Z,100.00
2022-12-07T09:45:37.658Z,100.00
2022-12-07T09:48:29.408Z,100.00
2022-12-07T09:51:23.256Z,100.00
2022-12-07T09:54:14.474Z,100.00
2022-12-07T09:57:01.098Z,100.00
2022-12-07T09:59:47.464Z,100.00
2022-12-07T10:02:46.841Z,100.00
2022-12-07T10:05:41.976Z,100.00
2022-12-07T10:08:28.201Z,100.00
2022-12-07T10:11:16.946Z,100.00
2022-12-07T10:14:14.833Z,100.00
2022-12-07T10:17:01.590Z,100.00
2022-12-07T10:19:47.845Z,100.00
2022-12-07T10:22:34.254Z,100.00
2022-12-07T10:25:22.019Z,100.00
2022-12-07T10:28:08.178Z,100.00
2022-12-07T10:31:04.366Z,100.00
2022-12-07T10:33:55.420Z,100.00
2022-12-07T10:36:41.756Z,100.00
2022-12-07T10:39:28.283Z,100.00
2022-12-07T10:42:19.501Z,100.00
2022-12-07T10:45:16.775Z,100.00
2022-12-07T10:48:23.461Z,100.00
2022-12-07T10:51:39.156Z,100.00
2022-12-07T10:55:03.881Z,100.00
2022-12-07T10:57:53.386Z,100.00
2022-12-07T11:01:22.030Z,100.00
2022-12-07T11:04:29.698Z,100.00
2022-12-07T11:07:55.197Z,100.00
2022-12-07T11:11:09.712Z,100.00
2022-12-07T11:14:05.302Z,100.00
2022-12-07T11:17:00.918Z,100.00
2022-12-07T11:20:02.467Z,100.00
2022-12-07T11:23:12.308Z,100.00
2022-12-07T11:26:07.445Z,100.00
2022-12-07T11:29:33.900Z,100.00
2022-12-07T11:32:23.463Z,100.00
2022-12-07T11:35:31.140Z,100.00
2022-12-07T11:38:26.268Z,100.00
2022-12-07T11:41:22.736Z,100.00
2022-12-07T11:44:33.586Z,99.53
2022-12-07T11:47:49.191Z,98.65
2022-12-07T11:50:41.862Z,99.24
2022-12-07T11:53:40.346Z,100.00
2022-12-07T11:56:28.817Z,99.71
2022-12-07T11:59:24.233Z,100.00
2022-12-07T12:02:16.335Z,100.00
2022-12-07T12:05:08.239Z,100.00
2022-12-07T12:11:39.286Z,100.00
2022-12-07T12:14:48.484Z,100.00
2022-12-07T12:18:07.050Z,100.00
2022-12-07T12:21:02.543Z,100.00
2022-12-07T12:23:56.359Z,100.00
2022-12-07T12:27:10.510Z,100.00
2022-12-07T12:30:01.456Z,100.00
2022-12-07T12:32:47.954Z,100.00
2022-12-07T12:35:38.331Z,100.00
2022-12-07T12:38:28.020Z,100.00
2022-12-07T12:41:57.393Z,100.00
2022-12-07T12:45:05.889Z,100.00
2022-12-07T12:47:57.057Z,100.00
2022-12-07T12:50:43.206Z,100.00
2022-12-07T12:53:30.251Z,100.00
2022-12-07T12:56:41.730Z,100.00
2022-12-07T12:59:36.231Z,100.00
2022-12-07T13:02:29.491Z,100.00
2022-12-07T13:05:18.779Z,100.00
2022-12-07T13:08:31.877Z,100.00
2022-12-07T13:11:26.547Z,100.00
2022-12-07T13:15:01.625Z,100.00
2022-12-07T13:17:54.460Z,100.00
2022-12-07T13:20:49.390Z,100.00
2022-12-07T13:23:45.257Z,100.00
2022-12-07T13:26:31.428Z,100.00
2022-12-07T13:29:22.371Z,100.00
2022-12-07T13:32:26.953Z,100.00
2022-12-07T13:35:40.833Z,100.00
2022-12-07T13:38:37.855Z,100.00
2022-12-07T13:41:26.850Z,100.00
2022-12-07T13:44:15.865Z,100.00
2022-12-07T13:47:05.017Z,100.00
2022-12-07T13:49:54.392Z,100.00
2022-12-07T13:52:46.005Z,100.00
2022-12-07T13:55:32.476Z,100.00
2022-12-07T13:58:18.905Z,100.00
2022-12-07T14:01:06.675Z,100.00
2022-12-07T14:03:52.899Z,100.00
2022-12-07T14:06:49.649Z,100.00
2022-12-07T14:09:35.707Z,100.00
2022-12-07T14:12:22.654Z,100.00
2022-12-07T14:15:22.189Z,100.00
2022-12-07T14:18:28.936Z,100.00
2022-12-07T14:21:25.605Z,100.00
2022-12-07T14:24:21.597Z,100.00
2022-12-07T14:27:26.594Z,100.00
2022-12-07T14:30:17.739Z,100.00
2022-12-07T14:33:05.965Z,100.00
2022-12-07T14:35:59.170Z,100.00
2022-12-07T14:38:45.801Z,100.00
2022-12-07T14:41:50.739Z,100.00
2022-12-07T14:44:37.126Z,100.00
2022-12-07T14:50:35.008Z,100.00
2022-12-07T14:53:30.594Z,100.00
2022-12-07T14:56:17.111Z,100.00
2022-12-07T14:59:03.945Z,100.00
2022-12-07T15:01:50.944Z,100.00
2022-12-07T15:04:37.223Z,100.00
2022-12-07T15:07:24.801Z,100.00
2022-12-07T15:10:24.159Z,100.00
2022-12-07T15:13:30.491Z,100.00
2022-12-07T15:16:21.104Z,100.00
2022-12-07T15:19:27.823Z,100.00
2022-12-07T15:22:14.699Z,100.00
2022-12-07T15:25:01.422Z,100.00
2022-12-07T15:27:48.186Z,100.00
2022-12-07T15:30:34.734Z,100.00
2022-12-07T15:33:21.007Z,100.00
2022-12-07T15:36:07.515Z,100.00
2022-12-07T15:39:13.633Z,100.00
2022-12-07T15:42:00.547Z,100.00
2022-12-07T15:45:05.654Z,100.00
2022-12-07T15:48:26.712Z,100.00
2022-12-07T15:51:07.422Z,100.00
2022-12-07T15:53:54.886Z,100.00
2022-12-07T15:56:41.349Z,100.00
2022-12-07T15:59:28.907Z,100.00
2022-12-07T16:02:15.412Z,100.00
2022-12-07T16:05:02.190Z,100.00
2022-12-07T16:07:49.134Z,100.00
2022-12-07T16:10:35.647Z,100.00
2022-12-07T16:13:22.062Z,100.00
2022-12-07T16:16:11.414Z,100.00
2022-12-07T16:18:58.681Z,100.00
2022-12-07T16:21:45.008Z,100.00
2022-12-07T16:24:32.159Z,100.00
2022-12-07T16:27:18.766Z,100.00
2022-12-07T16:30:05.662Z,100.00
2022-12-07T16:32:52.696Z,100.00
2022-12-07T16:35:41.851Z,100.00
2022-12-07T16:38:28.084Z,100.00
2022-12-07T16:41:14.913Z,100.00
2022-12-07T16:44:07.688Z,100.00
2022-12-07T16:46:53.902Z,100.00
2022-12-07T16:49:40.573Z,100.00
2022-12-07T16:52:26.927Z,100.00
2022-12-07T16:55:12.963Z,100.00
2022-12-07T16:57:59.561Z,100.00
2022-12-07T17:00:46.886Z,100.00
2022-12-07T17:03:33.128Z,100.00
2022-12-07T17:06:22.064Z,100.00
2022-12-07T17:09:10.611Z,100.00
2022-12-07T17:11:56.966Z,100.00
2022-12-07T17:15:02.160Z,100.00
2022-12-07T17:17:59.280Z,100.00
2022-12-07T17:20:45.525Z,100.00
2022-12-07T17:23:33.774Z,100.00
2022-12-07T17:26:29.406Z,100.00
2022-12-07T17:29:19.245Z,100.00
2022-12-07T17:32:05.981Z,100.00
2022-12-07T17:34:52.726Z,100.00
2022-12-07T17:37:38.941Z,100.00
2022-12-07T17:40:25.218Z,100.00
2022-12-07T17:43:11.676Z,100.00
2022-12-07T17:45:57.868Z,100.00
2022-12-07T17:48:44.060Z,100.00
2022-12-07T17:51:49.255Z,100.00
2022-12-07T17:54:36.232Z,100.00
2022-12-07T17:57:23.199Z,100.00
2022-12-07T18:00:11.498Z,100.00
2022-12-07T18:03:00.706Z,100.00
2022-12-07T18:05:49.045Z,100.00
2022-12-07T18:08:36.641Z,100.00
2022-12-07T18:11:23.273Z,100.00
2022-12-07T18:14:09.512Z,100.00
2022-12-07T18:16:56.545Z,100.00
2022-12-07T18:19:43.082Z,100.00
2022-12-07T18:22:29.165Z,100.00
2022-12-07T18:25:15.476Z,100.00
2022-12-07T18:28:01.771Z,100.00
2022-12-07T18:31:14.291Z,100.00
2022-12-07T18:34:02.111Z,100.00
2022-12-07T18:36:53.336Z,100.00
2022-12-07T18:39:39.660Z,100.00
2022-12-07T18:42:26.039Z,100.00
2022-12-07T18:45:12.368Z,100.00
2022-12-07T18:47:58.673Z,100.00
2022-12-07T18:50:47.041Z,100.00
2022-12-07T18:53:34.438Z,100.00
2022-12-07T18:56:23.035Z,100.00
2022-12-07T18:59:32.677Z,100.00
2022-12-07T19:02:19.098Z,100.00
2022-12-07T19:05:06.621Z,100.00
2022-12-07T19:07:53.067Z,100.00
2022-12-07T19:10:39.275Z,100.00
2022-12-07T19:13:25.898Z,100.00
2022-12-07T19:16:12.251Z,100.00
2022-12-07T19:18:58.594Z,100.00
2022-12-07T19:21:45.141Z,100.00
2022-12-07T19:24:32.295Z,100.00
2022-12-07T19:27:18.524Z,100.00
2022-12-07T19:30:06.772Z,100.00
2022-12-07T19:32:53.177Z,100.00
2022-12-07T19:35:39.558Z,100.00
2022-12-07T19:38:25.906Z,100.00
2022-12-07T19:41:32.111Z,100.00
2022-12-07T19:44:22.000Z,100.00
2022-12-07T19:47:09.270Z,100.00
2022-12-07T19:49:55.444Z,100.00
2022-12-07T19:52:41.637Z,100.00
2022-12-07T19:55:28.152Z,100.00
2022-12-07T19:58:14.276Z,100.00
2022-12-07T20:01:04.737Z,100.00
2022-12-07T20:03:51.701Z,100.00
2022-12-07T20:06:38.394Z,100.00
2022-12-07T20:09:25.692Z,100.00
2022-12-07T20:12:31.088Z,100.00
2022-12-07T20:15:18.206Z,100.00
2022-12-07T20:18:04.507Z,100.00
2022-12-07T20:20:59.036Z,100.00
2022-12-07T20:23:45.452Z,100.00
2022-12-07T20:26:34.224Z,100.00
2022-12-07T20:29:23.040Z,100.00
2022-12-07T20:32:13.489Z,100.00
2022-12-07T20:34:59.834Z,100.00
2022-12-07T20:37:46.137Z,100.00
2022-12-07T20:40:32.487Z,100.00
2022-12-07T20:43:18.676Z,100.00
2022-12-07T20:46:05.123Z,100.00
2022-12-07T20:48:52.011Z,100.00
2022-12-07T20:51:38.463Z,100.00
2022-12-07T20:54:24.929Z,100.00
2022-12-07T20:57:11.443Z,100.00
2022-12-07T20:59:58.108Z,100.00
2022-12-07T21:02:44.541Z,100.00
2022-12-07T21:05:31.184Z,100.00
2022-12-07T21:08:17.484Z,100.00
2022-12-07T21:11:08.967Z,100.00
2022-12-07T21:13:55.616Z,100.00
2022-12-07T21:16:41.859Z,100.00
2022-12-07T21:19:28.070Z,100.00
2022-12-07T21:22:14.794Z,100.00
2022-12-07T21:25:01.107Z,100.00
2022-12-07T21:27:47.687Z,100.00
2022-12-07T21:30:50.887Z,100.00
2022-12-07T21:33:41.645Z,100.00
2022-12-07T21:36:28.130Z,100.00
2022-12-07T21:39:14.639Z,100.00
2022-12-07T21:42:01.119Z,100.00
2022-12-07T21:44:47.587Z,100.00
2022-12-07T21:47:33.971Z,100.00
2022-12-07T21:50:20.378Z,100.00
2022-12-07T21:53:06.939Z,100.00
2022-12-07T21:55:53.380Z,100.00
2022-12-07T21:58:39.898Z,100.00
2022-12-07T22:01:28.847Z,100.00
2022-12-07T22:04:18.944Z,100.00
2022-12-07T22:07:05.138Z,100.00
2022-12-07T22:09:51.444Z,100.00
2022-12-07T22:12:37.995Z,100.00
2022-12-07T22:15:25.154Z,100.00
2022-12-07T22:18:11.802Z,100.00
2022-12-07T22:21:00.152Z,100.00
2022-12-07T22:23:46.685Z,100.00
2022-12-07T22:26:33.650Z,100.00
2022-12-07T22:29:21.033Z,100.00
2022-12-07T22:32:39.957Z,100.00
2022-12-07T22:35:16.238Z,100.00
2022-12-07T22:38:02.849Z,100.00
2022-12-07T22:40:49.526Z,100.00
2022-12-07T22:43:35.993Z,100.00
2022-12-07T22:46:23.990Z,100.00
2022-12-07T22:49:10.561Z,100.00
2022-12-07T22:51:56.971Z,100.00
2022-12-07T22:54:43.435Z,100.00
2022-12-07T22:57:31.070Z,100.00
2022-12-07T23:00:18.504Z,100.00
2022-12-07T23:03:05.252Z,100.00
2022-12-07T23:05:52.713Z,100.00
2022-12-07T23:08:39.018Z,100.00
2022-12-07T23:11:47.553Z,100.00
2022-12-07T23:14:35.769Z,100.00
2022-12-07T23:17:22.457Z,100.00
2022-12-07T23:20:09.559Z,100.00
2022-12-07T23:22:56.217Z,100.00
2022-12-07T23:25:42.434Z,100.00
2022-12-07T23:28:29.068Z,100.00
2022-12-07T23:31:17.150Z,100.00
2022-12-07T23:34:03.983Z,100.00
2022-12-07T23:36:50.636Z,100.00
2022-12-07T23:39:37.290Z,100.00
2022-12-07T23:42:23.967Z,100.00
2022-12-07T23:45:10.838Z,100.00
2022-12-07T23:47:57.373Z,100.00
2022-12-07T23:50:43.705Z,100.00
2022-12-07T23:53:36.543Z,100.00
2022-12-07T23:56:26.132Z,100.00
2022-12-07T23:59:13.073Z,100.00
